LEWISTON (LEW)

Elevation: 1870' · TRINITY R basin · Operator: US Bureau of Reclamation

Provisional data, subject to change.
Query executed Saturday at 11:20:24   clock

Select a sensor type for a plot of data.
Note: Reservoir Flows are daily averages.

Earlier

Date RES ELE    STORAGE    RES CHG    OUTFLOW    INFLOW    EVAP    RIV REL    SPILL    DIS PWR   
 FEET   AF   AF   CFS   CFS   CFS   CFS   CFS   CFS  
05/01/2015 1902.00 14659 763 1948 2336 3 1814 1684 0
05/02/2015 1901.97 14637 -22 3035 3030 6 2841 2711 0
05/03/2015 1901.90 14584 -- 3878 3857 6 3851 3721 0
05/04/2015 1901.66 14405 -179 4974 4890 6 4823 4693 0
05/05/2015 1901.08 13971 -- 4974 4761 6 4964 4834 0
05/06/2015 1901.06 13956 -15 4974 4972 6 4964 4834 0
05/07/2015 1901.16 14031 75 5404 5447 5 4965 4835 0
05/08/2015 1901.29 14128 97 4852 4907 6 4401 4271 0
05/09/2015 1900.56 13587 -541 3560 3293 6 3114 2984 0
05/10/2015 1901.52 14300 713 2931 3296 6 2921 2791 0
05/11/2015 1900.49 13536 -764 3341 2962 6 2926 2796 0
05/12/2015 1900.38 13455 -81 3010 2974 5 2773 2643 0
05/13/2015 1901.57 14337 882 2106 2555 4 2089 1959 0
05/14/2015 1901.60 14360 23 2057 2071 2 2041 1911 0
05/15/2015 1901.24 14091 -269 2321 2189 4 2034 1904 0
05/16/2015 1901.39 14203 112 2318 2377 3 2042 1912 0
05/17/2015 1901.16 14031 -172 2301 2217 3 2035 1905 0
05/18/2015 1901.00 13911 -120 2686 2629 3 2031 1901 0
05/19/2015 1900.59 13609 -302 2554 2405 3 2037 1907 0
05/20/2015 1900.34 13425 -184 2446 2356 3 2017 1887 0
05/21/2015 1900.51 13550 125 2553 2619 3 2004 1874 0
05/22/2015 1900.86 13808 258 2722 2855 3 2024 1894 0
05/23/2015 1901.17 14038 230 2626 2744 2 2038 1908 0
05/24/2015 1900.84 13793 -245 2612 2494 6 1944 1814 0
05/25/2015 1901.00 13911 118 2429 2493 5 1882 1752 0
05/26/2015 1900.70 13690 -221 2490 2385 6 1802 1672 0
05/27/2015 1900.72 13705 15 2341 2355 6 1789 1659 0
05/28/2015 1901.73 14457 752 1810 2195 6 1794 1664 0
05/29/2015 1901.36 14180 -277 1994 1859 5 1805 1675 0
05/30/2015 -- -- -- -- -- -- -- -- --

Later | Latest

Warning! This data is preliminary and subject to revision.

Show LEW Map | Plot LEW Data | 1 Month LEW Data | Real-Time LEW Data | LEW Info